createdAt,value
2019-02-07T00:00:25.173Z,37.1
2019-02-07T00:01:16.611Z,37.1
2019-02-07T00:02:05.860Z,37
2019-02-07T00:02:55.657Z,37
2019-02-07T00:03:45.695Z,37
2019-02-07T00:04:35.802Z,37
2019-02-07T00:05:25.888Z,37
2019-02-07T00:06:15.012Z,37
2019-02-07T00:07:07.820Z,37
2019-02-07T00:07:56.370Z,37
2019-02-07T00:08:45.866Z,37
2019-02-07T00:09:35.800Z,37
2019-02-07T00:10:24.824Z,37
2019-02-07T00:11:16.202Z,37
2019-02-07T00:12:06.338Z,36.9
2019-02-07T00:12:56.160Z,36.9
2019-02-07T00:13:45.798Z,36.9
2019-02-07T00:14:45.322Z,36.9
2019-02-07T00:15:26.217Z,36.9
2019-02-07T00:16:18.582Z,36.9
2019-02-07T00:17:06.615Z,36.9
2019-02-07T00:17:55.860Z,36.9
2019-02-07T00:18:46.244Z,36.9
2019-02-07T00:19:36.352Z,36.9
2019-02-07T00:20:26.006Z,36.9
2019-02-07T00:21:17.208Z,36.9
2019-02-07T00:22:06.419Z,36.9
2019-02-07T00:22:57.316Z,36.9
2019-02-07T00:23:47.080Z,36.9
2019-02-07T00:24:48.884Z,36.9
2019-02-07T00:25:29.351Z,36.9
2019-02-07T00:26:16.750Z,36.9
2019-02-07T00:27:07.421Z,36.9
2019-02-07T00:27:56.823Z,36.9
2019-02-07T00:28:47.206Z,36.9
2019-02-07T00:29:37.761Z,36.9
2019-02-07T00:30:27.563Z,36.9
2019-02-07T00:31:17.533Z,36.9
2019-02-07T00:32:07.950Z,36.8
2019-02-07T00:32:56.923Z,36.8
2019-02-07T00:33:47.806Z,36.8
2019-02-07T00:34:40.226Z,36.8
2019-02-07T00:35:27.626Z,36.8
2019-02-07T00:36:17.415Z,36.8
2019-02-07T00:37:07.738Z,36.8
2019-02-07T00:37:57.600Z,36.8
2019-02-07T00:38:47.287Z,36.8
2019-02-07T00:39:37.637Z,36.8
2019-02-07T00:40:27.687Z,36.8
2019-02-07T00:41:18.324Z,36.8
2019-02-07T00:42:07.812Z,36.8
2019-02-07T00:42:58.432Z,36.8
2019-02-07T00:43:50.181Z,36.8
2019-02-07T00:44:37.992Z,36.8
2019-02-07T00:45:28.031Z,36.8
2019-02-07T00:46:17.939Z,36.8
2019-02-07T00:47:09.862Z,36.8
2019-02-07T00:47:58.245Z,36.8
2019-02-07T00:48:48.832Z,36.8
2019-02-07T00:49:38.319Z,36.8
2019-02-07T00:50:31.637Z,36.8
2019-02-07T00:51:19.397Z,36.8
2019-02-07T00:52:08.910Z,36.8
2019-02-07T00:53:00.986Z,36.8
2019-02-07T00:53:49.272Z,36.8
2019-02-07T00:54:39.351Z,36.8
2019-02-07T00:55:28.774Z,36.7
2019-02-07T00:56:19.359Z,36.7
2019-02-07T00:57:09.826Z,36.8
2019-02-07T00:57:59.779Z,36.7
2019-02-07T00:58:49.062Z,36.7
2019-02-07T00:59:39.052Z,36.7
2019-02-07T01:00:29.424Z,36.7
2019-02-07T01:01:20.088Z,36.7
2019-02-07T01:02:11.549Z,36.7
2019-02-07T01:02:59.859Z,36.7
2019-02-07T01:03:49.326Z,36.7
2019-02-07T01:04:39.963Z,36.7
2019-02-07T01:05:31.016Z,36.7
2019-02-07T01:06:19.757Z,36.7
2019-02-07T01:07:09.402Z,36.6
2019-02-07T01:07:58.838Z,36.6
2019-02-07T01:08:50.059Z,36.6
2019-02-07T01:09:39.743Z,36.6
2019-02-07T01:10:29.990Z,36.6
2019-02-07T01:11:21.533Z,36.6
2019-02-07T01:12:10.233Z,36.6
2019-02-07T01:13:00.824Z,36.6
2019-02-07T01:13:50.422Z,36.6
2019-02-07T01:14:42.043Z,36.6
2019-02-07T01:15:30.745Z,36.6
2019-02-07T01:16:20.606Z,36.6
2019-02-07T01:17:10.838Z,36.6
2019-02-07T01:18:00.604Z,36.6
2019-02-07T01:18:50.696Z,36.6
2019-02-07T01:19:40.727Z,36.6
2019-02-07T01:20:32.713Z,36.6
2019-02-07T01:21:20.937Z,36.6
2019-02-07T01:22:10.952Z,36.6
2019-02-07T01:23:01.594Z,36.6
2019-02-07T01:23:51.025Z,36.6
2019-02-07T01:24:41.352Z,36.6
2019-02-07T01:25:30.684Z,36.5
2019-02-07T01:26:21.754Z,36.6
2019-02-07T01:27:11.785Z,36.5
2019-02-07T01:28:01.576Z,36.6
2019-02-07T01:28:51.349Z,36.5
2019-02-07T01:29:44.467Z,36.5
2019-02-07T01:30:32.050Z,36.5
2019-02-07T01:31:21.514Z,36.5
2019-02-07T01:32:11.887Z,36.5
2019-02-07T01:33:01.942Z,36.5
2019-02-07T01:33:51.999Z,36.5
2019-02-07T01:34:40.977Z,36.5
2019-02-07T01:35:32.797Z,36.4
2019-02-07T01:36:21.884Z,36.5
2019-02-07T01:37:11.396Z,36.4
2019-02-07T01:38:02.301Z,36.4
2019-02-07T01:38:54.471Z,36.5
2019-02-07T01:39:42.490Z,36.4
2019-02-07T01:40:31.908Z,36.4
2019-02-07T01:41:22.254Z,36.4
2019-02-07T01:42:11.771Z,36.4
2019-02-07T01:43:02.661Z,36.4
2019-02-07T01:43:51.957Z,36.4
2019-02-07T01:44:44.388Z,36.4
2019-02-07T01:45:32.803Z,36.4
2019-02-07T01:46:23.150Z,36.4
2019-02-07T01:47:12.220Z,36.4
2019-02-07T01:48:05.369Z,36.4
2019-02-07T01:48:51.762Z,36.4
2019-02-07T01:49:42.568Z,36.4
2019-02-07T01:50:32.347Z,36.4
2019-02-07T01:51:22.378Z,36.4
2019-02-07T01:52:13.422Z,36.4
2019-02-07T01:53:02.515Z,36.4
2019-02-07T01:53:54.745Z,36.4
2019-02-07T01:54:43.745Z,36.4
2019-02-07T01:55:33.525Z,36.4
2019-02-07T01:56:23.687Z,36.4
2019-02-07T01:57:14.959Z,36.4
2019-02-07T01:58:03.042Z,36.4
2019-02-07T01:58:53.290Z,36.4
2019-02-07T01:59:43.158Z,36.4
2019-02-07T02:00:33.902Z,36.4
2019-02-07T02:01:23.103Z,36.4
2019-02-07T02:02:13.694Z,36.4
2019-02-07T02:03:05.945Z,36.4
2019-02-07T02:03:54.409Z,36.4
2019-02-07T02:04:44.457Z,36.5
2019-02-07T02:05:34.532Z,36.6
2019-02-07T02:06:24.353Z,36.6
2019-02-07T02:07:14.102Z,36.6
2019-02-07T02:08:04.514Z,36.7
2019-02-07T02:08:54.574Z,36.8
2019-02-07T02:09:44.529Z,36.8
2019-02-07T02:10:33.727Z,36.9
2019-02-07T02:11:23.312Z,36.9
2019-02-07T02:12:16.784Z,37.1
2019-02-07T02:13:05.096Z,37.1
2019-02-07T02:13:54.249Z,37.2
2019-02-07T02:14:43.649Z,37.3
2019-02-07T02:15:34.641Z,37.4
2019-02-07T02:16:27.392Z,37.5
2019-02-07T02:17:14.492Z,37.6
2019-02-07T02:18:05.376Z,37.6
2019-02-07T02:18:54.330Z,37.8
2019-02-07T02:19:44.675Z,37.9
2019-02-07T02:20:34.996Z,37.9
2019-02-07T02:21:27.874Z,38.1
2019-02-07T02:22:15.369Z,38.2
2019-02-07T02:23:05.216Z,38.3
2019-02-07T02:23:55.001Z,38.4
2019-02-07T02:24:50.146Z,38.4
2019-02-07T02:25:35.998Z,38.6
2019-02-07T02:26:25.710Z,38.7
2019-02-07T02:27:16.041Z,38.8
2019-02-07T02:28:05.850Z,38.9
2019-02-07T02:28:56.143Z,39
2019-02-07T02:29:46.190Z,39.1
2019-02-07T02:30:38.954Z,39.2
2019-02-07T02:31:25.229Z,39.3
2019-02-07T02:32:15.624Z,39.4
2019-02-07T02:33:06.086Z,39.4
2019-02-07T02:33:56.575Z,39.5
2019-02-07T02:34:46.297Z,39.6
2019-02-07T02:35:35.922Z,39.6
2019-02-07T02:36:26.441Z,39.6
2019-02-07T02:37:16.183Z,39.7
2019-02-07T02:38:05.150Z,39.7
2019-02-07T02:38:56.025Z,39.8
2019-02-07T02:39:48.053Z,39.8
2019-02-07T02:40:36.702Z,39.8
2019-02-07T02:41:26.767Z,39.8
2019-02-07T02:42:16.253Z,39.9
2019-02-07T02:43:06.379Z,39.9
2019-02-07T02:43:56.637Z,39.9
2019-02-07T02:44:47.279Z,39.9
2019-02-07T02:45:43.797Z,39.9
2019-02-07T02:46:26.006Z,40.1
2019-02-07T02:47:16.357Z,40.1
2019-02-07T02:48:07.223Z,40.1
2019-02-07T02:48:57.767Z,40.1
2019-02-07T02:49:47.327Z,40.1
2019-02-07T02:50:36.888Z,40.2
2019-02-07T02:51:27.185Z,40.2
2019-02-07T02:52:17.007Z,40.3
2019-02-07T02:53:06.764Z,40.3
2019-02-07T02:53:57.879Z,40.3
2019-02-07T02:54:49.810Z,40.3
2019-02-07T02:55:37.832Z,40.3
2019-02-07T02:56:27.557Z,40.3
2019-02-07T02:57:17.884Z,40.3
2019-02-07T02:58:08.749Z,40.4
2019-02-07T02:58:56.716Z,40.4
2019-02-07T02:59:47.805Z,40.4
2019-02-07T03:00:37.654Z,40.4
2019-02-07T03:01:27.892Z,40.4
2019-02-07T03:02:17.399Z,40.4
2019-02-07T03:03:08.321Z,40.5
2019-02-07T03:03:58.796Z,40.5
2019-02-07T03:04:48.561Z,40.5
2019-02-07T03:08:20.401Z,40.6
2019-02-07T03:09:10.175Z,40.6
2019-02-07T03:10:00.320Z,40.6
2019-02-07T03:10:51.730Z,40.7
2019-02-07T03:11:40.379Z,40.8
2019-02-07T03:12:30.171Z,40.8
2019-02-07T03:13:19.910Z,40.8
2019-02-07T03:14:11.831Z,40.8
2019-02-07T03:15:00.918Z,40.8
2019-02-07T03:15:55.246Z,40.9
2019-02-07T03:16:40.835Z,40.8
2019-02-07T03:17:31.301Z,40.9
2019-02-07T03:18:20.060Z,40.9
2019-02-07T03:19:11.049Z,40.9
2019-02-07T03:20:03.642Z,40.9
2019-02-07T03:20:51.096Z,40.9
2019-02-07T03:21:40.577Z,40.9
2019-02-07T03:22:30.927Z,40.9
2019-02-07T03:23:21.918Z,40.9
2019-02-07T03:24:11.553Z,40.9
2019-02-07T03:25:01.700Z,40.9
2019-02-07T03:25:50.934Z,40.9
2019-02-07T03:26:41.514Z,40.8
2019-02-07T03:27:31.259Z,40.8
2019-02-07T03:28:21.857Z,40.8
2019-02-07T03:29:14.272Z,40.8
2019-02-07T03:30:02.475Z,40.8
2019-02-07T03:30:52.308Z,40.8
2019-02-07T03:31:42.035Z,40.8
2019-02-07T03:32:32.465Z,40.8
2019-02-07T03:33:21.987Z,40.8
2019-02-07T03:34:10.826Z,40.8
2019-02-07T03:35:02.880Z,40.8
2019-02-07T03:35:52.361Z,40.8
2019-02-07T03:36:42.361Z,40.8
2019-02-07T03:37:32.451Z,40.8
2019-02-07T03:38:25.199Z,40.8
2019-02-07T03:39:12.328Z,40.8
2019-02-07T03:40:01.936Z,40.8
2019-02-07T03:40:52.114Z,40.8
2019-02-07T03:41:41.775Z,40.8
2019-02-07T03:42:31.768Z,40.8
2019-02-07T03:43:22.645Z,40.8
2019-02-07T03:44:12.983Z,40.8
2019-02-07T03:45:02.433Z,40.8
2019-02-07T03:46:06.611Z,40.8
2019-02-07T03:46:42.153Z,40.8
2019-02-07T03:47:35.476Z,40.8
2019-02-07T03:48:23.051Z,40.8
2019-02-07T03:49:12.281Z,40.8
2019-02-07T03:50:02.476Z,40.8
2019-02-07T03:50:52.914Z,40.8
2019-02-07T03:51:43.170Z,40.8
2019-02-07T03:52:32.385Z,40.7
2019-02-07T03:53:23.695Z,40.8
2019-02-07T03:54:13.368Z,40.7
2019-02-07T03:55:04.015Z,40.7
2019-02-07T03:55:53.608Z,40.7
2019-02-07T03:56:46.258Z,40.7
2019-02-07T03:57:33.045Z,40.7
2019-02-07T03:58:23.934Z,40.7
2019-02-07T03:59:13.440Z,40.7
2019-02-07T04:00:04.143Z,40.7
2019-02-07T04:00:53.816Z,40.7
2019-02-07T04:01:44.145Z,40.7
2019-02-07T04:02:34.510Z,40.7
2019-02-07T04:03:24.607Z,40.7
2019-02-07T04:04:14.325Z,40.7
2019-02-07T04:05:04.460Z,40.6
2019-02-07T04:05:57.097Z,40.6
2019-02-07T04:06:43.927Z,40.6
2019-02-07T04:07:34.670Z,40.6
2019-02-07T04:08:24.097Z,40.6
2019-02-07T04:09:14.190Z,40.6
2019-02-07T04:10:03.916Z,40.6
2019-02-07T04:10:53.947Z,40.6
2019-02-07T04:11:45.061Z,40.6
2019-02-07T04:12:34.918Z,40.6
2019-02-07T04:13:24.705Z,40.6
2019-02-07T04:14:14.727Z,40.6
2019-02-07T04:15:07.190Z,40.6
2019-02-07T04:15:54.843Z,40.6
2019-02-07T04:16:45.280Z,40.6
2019-02-07T04:17:35.337Z,40.6
2019-02-07T04:18:25.131Z,40.6
2019-02-07T04:19:15.657Z,40.6
2019-02-07T04:20:05.897Z,40.6
2019-02-07T04:20:55.584Z,40.6
2019-02-07T04:21:45.563Z,40.6
2019-02-07T04:22:35.142Z,40.6
2019-02-07T04:23:25.410Z,40.6
2019-02-07T04:24:21.314Z,40.5
2019-02-07T04:25:22.389Z,40.5
2019-02-07T04:25:55.576Z,40.5
2019-02-07T04:26:45.628Z,40.6
2019-02-07T04:27:35.776Z,40.5
2019-02-07T04:28:25.594Z,40.5
2019-02-07T04:29:16.165Z,40.5
2019-02-07T04:30:06.789Z,40.5
2019-02-07T04:30:56.293Z,40.5
2019-02-07T04:31:46.294Z,40.5
2019-02-07T04:32:35.881Z,40.5
2019-02-07T04:33:28.454Z,40.5
2019-02-07T04:34:15.621Z,40.5
2019-02-07T04:35:06.880Z,40.5
2019-02-07T04:35:56.381Z,40.4
2019-02-07T04:36:45.815Z,40.4
2019-02-07T04:37:36.519Z,40.4
2019-02-07T04:38:26.441Z,40.4
2019-02-07T04:39:15.833Z,40.4
2019-02-07T04:40:07.183Z,40.4
2019-02-07T04:40:56.908Z,40.4
2019-02-07T04:41:47.233Z,40.4
2019-02-07T04:42:39.664Z,40.4
2019-02-07T04:43:26.802Z,40.4
2019-02-07T04:44:16.976Z,40.4
2019-02-07T04:45:07.107Z,40.4
2019-02-07T04:45:57.777Z,40.4
2019-02-07T04:46:47.330Z,40.4
2019-02-07T04:47:36.816Z,40.4
2019-02-07T04:48:27.737Z,40.4
2019-02-07T04:49:17.266Z,40.4
2019-02-07T04:50:07.339Z,40.4
2019-02-07T04:50:57.197Z,40.4
2019-02-07T04:51:50.177Z,40.4
2019-02-07T04:52:37.202Z,40.4
2019-02-07T04:53:27.494Z,40.4
2019-02-07T04:54:17.287Z,40.4
2019-02-07T04:55:08.414Z,40.4
2019-02-07T04:55:57.915Z,40.4
2019-02-07T04:56:48.304Z,40.4
2019-02-07T04:57:37.611Z,40.3
2019-02-07T04:58:28.107Z,40.3
2019-02-07T04:59:17.429Z,40.3
2019-02-07T05:00:11.391Z,40.3
2019-02-07T05:01:00.484Z,40.3
2019-02-07T05:01:48.647Z,40.3
2019-02-07T05:02:38.449Z,40.3
2019-02-07T05:03:28.559Z,40.3
2019-02-07T05:04:18.248Z,40.3
2019-02-07T05:05:08.156Z,40.3
2019-02-07T05:05:58.694Z,40.3
2019-02-07T05:06:48.824Z,40.3
2019-02-07T05:07:38.818Z,40.3
2019-02-07T05:08:28.811Z,40.3
2019-02-07T05:09:18.056Z,40.3
2019-02-07T05:10:11.536Z,40.3
2019-02-07T05:10:57.599Z,40.3
2019-02-07T05:11:47.957Z,40.3
2019-02-07T05:12:38.573Z,40.3
2019-02-07T05:13:28.616Z,40.3
2019-02-07T05:14:18.420Z,40.3
2019-02-07T05:15:08.727Z,40.3
2019-02-07T05:16:00.100Z,40.2
2019-02-07T05:16:49.620Z,40.3
2019-02-07T05:17:39.753Z,40.2
2019-02-07T05:18:29.503Z,40.2
2019-02-07T05:19:21.348Z,40.2
2019-02-07T05:20:09.382Z,40.2
2019-02-07T05:20:58.305Z,40.2
2019-02-07T05:21:49.502Z,40.2
2019-02-07T05:22:39.283Z,40.2
2019-02-07T05:23:29.048Z,40.2
2019-02-07T05:24:19.372Z,40.2
2019-02-07T05:25:11.510Z,40.2
2019-02-07T05:26:00.338Z,40.2
2019-02-07T05:26:49.932Z,40.1
2019-02-07T05:27:41.018Z,40.1
2019-02-07T05:28:30.756Z,40.1
2019-02-07T05:29:20.318Z,40.1
2019-02-07T05:30:10.593Z,40.1
2019-02-07T05:30:59.828Z,40.1
2019-02-07T05:31:49.938Z,40.1
2019-02-07T05:32:42.012Z,40.1
2019-02-07T05:33:30.048Z,40.1
2019-02-07T05:34:22.774Z,40.1
2019-02-07T05:35:10.714Z,40.1
2019-02-07T05:36:00.264Z,40.1
2019-02-07T05:36:50.572Z,40.1
2019-02-07T05:37:40.867Z,40.1
2019-02-07T05:38:30.974Z,40.1
2019-02-07T05:39:20.513Z,40.1
2019-02-07T05:40:10.869Z,40.1
2019-02-07T05:41:00.818Z,40.1
2019-02-07T05:41:51.163Z,40.1
2019-02-07T05:42:40.392Z,40.1
2019-02-07T05:43:33.538Z,40.1
2019-02-07T05:44:20.745Z,40.1
2019-02-07T05:45:11.109Z,40
2019-02-07T05:46:00.865Z,40
2019-02-07T05:47:00.003Z,40
2019-02-07T05:47:41.354Z,40
2019-02-07T05:48:31.749Z,40
2019-02-07T05:49:21.081Z,40
2019-02-07T05:50:11.975Z,40
2019-02-07T05:51:01.828Z,40
2019-02-07T05:51:52.110Z,40
2019-02-07T05:52:43.860Z,40
2019-02-07T05:53:31.409Z,40
2019-02-07T05:54:22.005Z,39.9
2019-02-07T05:55:11.880Z,39.9
2019-02-07T05:56:01.543Z,39.9
2019-02-07T05:56:51.090Z,39.9
2019-02-07T05:57:42.040Z,39.9
2019-02-07T05:58:32.441Z,39.9
2019-02-07T05:59:21.496Z,39.9
2019-02-07T06:00:12.425Z,39.9
2019-02-07T06:01:02.182Z,39.9
2019-02-07T06:01:54.794Z,39.9
2019-02-07T06:02:42.875Z,39.9
2019-02-07T06:03:31.323Z,39.9
2019-02-07T06:06:19.739Z,39.9
2019-02-07T06:07:10.049Z,39.9
2019-02-07T06:08:00.380Z,39.9
2019-02-07T06:08:52.115Z,39.9
2019-02-07T06:09:40.785Z,39.9
2019-02-07T06:10:29.717Z,39.9
2019-02-07T06:11:20.595Z,39.9
2019-02-07T06:12:11.232Z,39.9
2019-02-07T06:13:00.747Z,39.9
2019-02-07T06:13:50.828Z,39.9
2019-02-07T06:14:41.346Z,39.9
2019-02-07T06:15:30.924Z,39.8
2019-02-07T06:16:19.821Z,39.8
2019-02-07T06:17:10.726Z,39.8
2019-02-07T06:18:02.318Z,39.8
2019-02-07T06:19:07.443Z,39.8
2019-02-07T06:19:41.451Z,39.8
2019-02-07T06:20:30.954Z,39.8
2019-02-07T06:21:22.891Z,39.8
2019-02-07T06:22:11.090Z,39.8
2019-02-07T06:23:00.589Z,39.8
2019-02-07T06:23:51.041Z,39.8
2019-02-07T06:24:40.991Z,39.8
2019-02-07T06:25:31.146Z,39.8
2019-02-07T06:26:21.663Z,39.8
2019-02-07T06:27:13.028Z,39.8
2019-02-07T06:28:02.099Z,39.8
2019-02-07T06:28:51.039Z,39.8
2019-02-07T06:29:42.483Z,39.8
2019-02-07T06:30:32.063Z,39.8
2019-02-07T06:31:21.500Z,39.8
2019-02-07T06:32:12.330Z,39.8
2019-02-07T06:33:02.107Z,39.8
2019-02-07T06:33:53.085Z,39.8
2019-02-07T06:34:42.611Z,39.8
2019-02-07T06:35:32.037Z,39.8
2019-02-07T06:36:24.055Z,39.8
2019-02-07T06:37:12.428Z,39.8
2019-02-07T06:38:02.508Z,39.8
2019-02-07T06:38:52.523Z,39.8
2019-02-07T06:39:43.285Z,39.8
2019-02-07T06:40:31.373Z,39.8
2019-02-07T06:41:22.758Z,39.8
2019-02-07T06:42:12.890Z,39.8
2019-02-07T06:43:02.598Z,39.8
2019-02-07T06:43:52.072Z,39.8
2019-02-07T06:44:42.745Z,39.8
2019-02-07T06:45:34.901Z,39.8
2019-02-07T06:46:23.120Z,39.8
2019-02-07T06:47:18.962Z,39.8
2019-02-07T06:48:02.840Z,39.8
2019-02-07T06:48:53.181Z,39.8
2019-02-07T06:49:43.379Z,39.8
2019-02-07T06:50:33.215Z,39.8
2019-02-07T06:51:22.527Z,39.8
2019-02-07T06:52:13.202Z,39.8
2019-02-07T06:53:03.867Z,39.8
2019-02-07T06:53:53.296Z,39.8
2019-02-07T06:54:45.384Z,39.8
2019-02-07T06:55:34.099Z,39.7
2019-02-07T06:56:24.021Z,39.7
2019-02-07T06:57:13.531Z,39.7
2019-02-07T06:58:05.496Z,39.7
2019-02-07T06:58:56.185Z,39.7
2019-02-07T07:01:11.883Z,39.7
2019-02-07T07:01:22.327Z,39.7
2019-02-07T07:02:12.782Z,39.7
2019-02-07T07:03:02.575Z,39.7
2019-02-07T07:03:58.208Z,39.7
2019-02-07T07:06:19.922Z,39.6
2019-02-07T07:07:10.370Z,39.6
2019-02-07T07:08:00.032Z,39.6
2019-02-07T07:08:50.397Z,39.6
2019-02-07T07:09:40.933Z,39.6
2019-02-07T07:10:29.637Z,39.6
2019-02-07T07:11:20.577Z,39.6
2019-02-07T07:12:10.439Z,39.6
2019-02-07T07:13:02.864Z,39.6
2019-02-07T07:13:50.456Z,39.6
2019-02-07T07:14:40.754Z,39.6
2019-02-07T07:15:30.647Z,39.7
2019-02-07T07:16:20.892Z,39.7
2019-02-07T07:17:10.125Z,39.7
2019-02-07T07:18:00.754Z,39.7
2019-02-07T07:18:50.637Z,39.8
2019-02-07T07:19:41.128Z,39.8
2019-02-07T07:20:30.799Z,39.8
2019-02-07T07:21:20.699Z,39.8
2019-02-07T07:22:12.391Z,39.8
2019-02-07T07:23:01.654Z,39.8
2019-02-07T07:23:51.436Z,39.8
2019-02-07T07:24:40.911Z,39.9
2019-02-07T07:25:32.826Z,39.9
2019-02-07T07:26:21.323Z,39.9
2019-02-07T07:27:11.381Z,39.9
2019-02-07T07:28:01.156Z,39.9
2019-02-07T07:28:52.083Z,39.9
2019-02-07T07:29:41.769Z,39.9
2019-02-07T07:30:31.883Z,39.9
2019-02-07T07:31:23.298Z,39.9
2019-02-07T07:32:12.125Z,39.9
2019-02-07T07:33:01.881Z,39.9
2019-02-07T07:33:51.393Z,39.9
2019-02-07T07:34:41.814Z,39.9
2019-02-07T07:35:31.778Z,39.9
2019-02-07T07:36:22.170Z,39.9
2019-02-07T07:37:11.843Z,39.8
2019-02-07T07:38:02.692Z,39.8
2019-02-07T07:38:52.463Z,39.5
2019-02-07T07:39:41.972Z,39.3
2019-02-07T07:40:33.347Z,38.9
2019-02-07T07:41:22.923Z,38.6
2019-02-07T07:42:12.988Z,38.3
2019-02-07T07:43:01.657Z,38
2019-02-07T07:43:53.692Z,37.8
2019-02-07T07:44:42.055Z,37.8
2019-02-07T07:45:33.214Z,37.8
2019-02-07T07:46:22.425Z,37.9
2019-02-07T07:47:12.804Z,38
2019-02-07T07:48:01.977Z,38.1
2019-02-07T07:48:53.105Z,38.3
2019-02-07T07:49:44.457Z,38.3
2019-02-07T07:50:33.077Z,38.4
2019-02-07T07:51:23.631Z,38.6
2019-02-07T07:52:12.582Z,38.6
2019-02-07T07:53:05.098Z,37.3
2019-02-07T07:53:53.809Z,23.5
2019-02-07T07:54:43.386Z,27.5
2019-02-07T07:55:32.914Z,37
2019-02-07T07:56:23.150Z,40.7
2019-02-07T07:57:13.519Z,38.9
2019-02-07T07:58:03.845Z,37.4
2019-02-07T07:58:55.662Z,36.5
2019-02-07T07:59:43.384Z,35.9
2019-02-07T08:00:34.021Z,35.7
2019-02-07T08:01:24.122Z,35.6
2019-02-07T08:02:15.019Z,35.6
2019-02-07T08:03:03.889Z,35.9
2019-02-07T08:03:54.196Z,36.1
2019-02-07T08:04:44.104Z,36.3
2019-02-07T08:05:34.081Z,36.5
2019-02-07T08:06:23.715Z,36.8
2019-02-07T08:07:13.856Z,37
2019-02-07T08:08:06.358Z,37.2
2019-02-07T08:08:53.723Z,37.4
2019-02-07T08:09:44.636Z,37.7
2019-02-07T08:10:34.782Z,37.9
2019-02-07T08:11:25.448Z,38
2019-02-07T08:12:13.651Z,38.2
2019-02-07T08:13:04.406Z,38.3
2019-02-07T08:13:54.623Z,38.4
2019-02-07T08:14:44.693Z,38.6
2019-02-07T08:15:34.485Z,38.6
2019-02-07T08:16:25.489Z,38.7
2019-02-07T08:17:17.254Z,38.7
2019-02-07T08:18:05.209Z,38.8
2019-02-07T08:18:53.986Z,38.9
2019-02-07T08:19:44.784Z,38.9
2019-02-07T08:20:37.969Z,39
2019-02-07T08:21:25.548Z,39.1
2019-02-07T08:22:14.972Z,39.1
2019-02-07T08:23:05.307Z,39.1
2019-02-07T08:23:55.324Z,39.2
2019-02-07T08:24:44.580Z,39.1
2019-02-07T08:25:35.567Z,39.2
2019-02-07T08:26:27.391Z,39.2
2019-02-07T08:27:14.978Z,39.2
2019-02-07T08:28:05.886Z,39.3
2019-02-07T08:28:54.891Z,39.2
2019-02-07T08:29:46.671Z,39.2
2019-02-07T08:30:42.413Z,39.2
2019-02-07T08:31:25.378Z,39.3
2019-02-07T08:32:14.894Z,39.2
2019-02-07T08:33:05.998Z,39.2
2019-02-07T08:33:56.040Z,39.2
2019-02-07T08:34:45.613Z,39.2
2019-02-07T08:35:38.153Z,36.4
2019-02-07T08:36:25.928Z,28.1
2019-02-07T08:37:16.940Z,32.8
2019-02-07T08:38:06.635Z,37.5
2019-02-07T08:38:56.137Z,39.3
2019-02-07T08:39:46.173Z,38.8
2019-02-07T08:40:37.147Z,36.9
2019-02-07T08:41:27.120Z,35.5
2019-02-07T08:42:16.075Z,35.1
2019-02-07T08:43:07.235Z,35.3
2019-02-07T08:43:57.002Z,35.6
2019-02-07T08:44:48.851Z,36.1
2019-02-07T08:45:37.160Z,36.5
2019-02-07T08:46:26.852Z,36.9
2019-02-07T08:47:16.794Z,37
2019-02-07T08:48:13.083Z,36.9
2019-02-07T08:48:57.638Z,36.8
2019-02-07T08:49:47.790Z,36.5
2019-02-07T08:50:37.323Z,36.3
2019-02-07T08:51:26.682Z,36.1
2019-02-07T08:52:17.654Z,36.1
2019-02-07T08:53:07.779Z,36
2019-02-07T08:53:58.891Z,35.9
2019-02-07T08:54:47.499Z,35.9
2019-02-07T08:55:40.997Z,35.9
2019-02-07T08:56:27.997Z,35.9
2019-02-07T08:57:19.554Z,35.9
2019-02-07T08:58:07.719Z,35.9
2019-02-07T08:58:57.792Z,35.9
2019-02-07T08:59:48.042Z,35.9
2019-02-07T09:00:38.215Z,36
2019-02-07T09:01:27.709Z,36.4
2019-02-07T09:02:18.004Z,37.2
2019-02-07T09:03:10.579Z,38.1
2019-02-07T09:03:58.226Z,38.9
2019-02-07T09:04:47.984Z,39.6
2019-02-07T09:05:37.971Z,40.4
2019-02-07T09:06:28.588Z,41.6
2019-02-07T09:07:18.421Z,42.5
2019-02-07T09:08:08.418Z,43.3
2019-02-07T09:08:58.876Z,43.9
2019-02-07T09:09:48.849Z,44.6
2019-02-07T09:10:38.319Z,45.2
2019-02-07T09:11:29.281Z,45.8
2019-02-07T09:12:20.722Z,46.3
2019-02-07T09:13:08.824Z,46.6
2019-02-07T09:13:59.950Z,47.1
2019-02-07T09:14:49.162Z,47.4
2019-02-07T09:15:42.145Z,47.8
2019-02-07T09:16:28.784Z,48.1
2019-02-07T09:17:20.751Z,48.3
2019-02-07T09:18:19.281Z,48.6
2019-02-07T09:18:59.167Z,48.9
2019-02-07T09:19:48.960Z,49.3
2019-02-07T09:20:39.393Z,49.6
2019-02-07T09:21:31.228Z,49.9
2019-02-07T09:22:19.966Z,50.1
2019-02-07T09:23:10.031Z,50.4
2019-02-07T09:23:58.963Z,50.5
2019-02-07T09:24:51.170Z,50.2
2019-02-07T09:25:40.182Z,49.3
2019-02-07T09:26:29.437Z,48.3
2019-02-07T09:27:19.616Z,47.4
2019-02-07T09:28:08.777Z,46.9
2019-02-07T09:28:59.877Z,46.9
2019-02-07T09:29:50.235Z,47.6
2019-02-07T09:30:41.289Z,48.4
2019-02-07T09:31:29.647Z,48.8
2019-02-07T09:32:19.882Z,48.8
2019-02-07T09:33:10.412Z,48.4
2019-02-07T09:34:02.184Z,48.3
2019-02-07T09:34:50.854Z,48.1
2019-02-07T09:35:40.647Z,47.9
2019-02-07T09:36:30.147Z,47.8
2019-02-07T09:37:21.019Z,48
2019-02-07T09:38:10.377Z,48.3
2019-02-07T09:39:00.887Z,48.3
2019-02-07T09:39:51.853Z,48.3
2019-02-07T09:40:40.226Z,47.9
2019-02-07T09:41:30.229Z,47.2
2019-02-07T09:42:20.546Z,46.4
2019-02-07T09:43:12.816Z,45.6
2019-02-07T09:44:01.234Z,44.9
2019-02-07T09:44:51.436Z,44.5
2019-02-07T09:45:41.076Z,44.2
2019-02-07T09:46:30.861Z,43.9
2019-02-07T09:47:21.196Z,43.7
2019-02-07T09:48:22.030Z,43.4
2019-02-07T09:49:03.411Z,43.2
2019-02-07T09:49:51.672Z,43.1
2019-02-07T09:50:41.118Z,42.9
2019-02-07T09:51:31.048Z,42.9
2019-02-07T09:52:21.905Z,42.9
2019-02-07T09:53:11.861Z,42.9
2019-02-07T09:54:02.326Z,42.8
2019-02-07T09:54:51.775Z,42.8
2019-02-07T09:55:42.135Z,42.7
2019-02-07T09:56:32.112Z,42.6
2019-02-07T09:57:22.195Z,42.6
2019-02-07T09:58:14.650Z,42.4
2019-02-07T09:59:04.705Z,42.3
2019-02-07T09:59:51.812Z,42.2
2019-02-07T10:00:42.383Z,42
2019-02-07T10:01:31.902Z,41.9
2019-02-07T10:02:21.989Z,41.7
2019-02-07T10:03:11.788Z,41.6
2019-02-07T10:04:03.158Z,41.3
2019-02-07T10:04:52.183Z,41
2019-02-07T10:07:22.329Z,40
2019-02-07T10:08:09.574Z,39.7
2019-02-07T10:08:59.957Z,39.6
2019-02-07T10:09:50.042Z,39.5
2019-02-07T10:10:40.275Z,39.2
2019-02-07T10:11:30.301Z,38.9
2019-02-07T10:12:19.849Z,38.6
2019-02-07T10:13:11.277Z,38.4
2019-02-07T10:14:00.274Z,38.1
2019-02-07T10:14:50.111Z,37.9
2019-02-07T10:15:41.036Z,37.6
2019-02-07T10:16:33.686Z,37.4
2019-02-07T10:17:19.675Z,37.3
2019-02-07T10:18:10.684Z,37.1
2019-02-07T10:19:00.899Z,37
2019-02-07T10:19:51.214Z,36.9
2019-02-07T10:20:43.229Z,36.8
2019-02-07T10:21:29.988Z,36.6
2019-02-07T10:22:22.549Z,36.6
2019-02-07T10:23:09.784Z,36.5
2019-02-07T10:24:01.223Z,36.4
2019-02-07T10:24:51.320Z,36.3
2019-02-07T10:25:43.022Z,36.3
2019-02-07T10:26:31.359Z,36.2
2019-02-07T10:27:21.478Z,36.1
2019-02-07T10:28:11.290Z,36.1
2019-02-07T10:29:01.146Z,35.9
2019-02-07T10:29:51.548Z,35.9
2019-02-07T10:30:41.206Z,35.9
2019-02-07T10:31:34.043Z,35.8
2019-02-07T10:32:21.831Z,35.8
2019-02-07T10:33:11.628Z,35.7
2019-02-07T10:34:02.015Z,35.6
2019-02-07T10:34:53.058Z,35.6
2019-02-07T10:35:41.780Z,35.6
2019-02-07T10:36:32.558Z,35.6
2019-02-07T10:37:22.500Z,35.4
2019-02-07T10:38:11.683Z,35.4
2019-02-07T10:39:02.282Z,35.4
2019-02-07T10:39:52.647Z,35.4
2019-02-07T10:40:43.844Z,35.3
2019-02-07T10:41:35.402Z,35.3
2019-02-07T10:42:22.297Z,35.2
2019-02-07T10:43:12.285Z,35.2
2019-02-07T10:44:03.151Z,35.1
2019-02-07T10:44:52.208Z,35.2
2019-02-07T10:45:43.133Z,35.1
2019-02-07T10:46:32.847Z,35
2019-02-07T10:47:22.130Z,35
2019-02-07T10:48:13.268Z,35
2019-02-07T10:49:02.723Z,34.9
2019-02-07T10:50:05.249Z,34.9
2019-02-07T10:50:43.217Z,34.9
2019-02-07T10:51:33.002Z,34.9
2019-02-07T10:52:21.861Z,34.8
2019-02-07T10:53:14.319Z,34.8
2019-02-07T10:54:03.395Z,34.7
2019-02-07T10:54:53.436Z,34.6
2019-02-07T10:55:42.178Z,34.5
2019-02-07T10:56:33.011Z,34.5
2019-02-07T10:57:23.189Z,34.4
2019-02-07T10:58:13.666Z,34.3
2019-02-07T10:59:05.696Z,34.3
2019-02-07T10:59:54.070Z,34.3
2019-02-07T11:00:43.557Z,34.2
2019-02-07T11:01:34.176Z,34.1
2019-02-07T11:02:24.229Z,34.1
2019-02-07T11:03:13.456Z,34
2019-02-07T11:04:04.386Z,34
2019-02-07T11:04:54.143Z,33.9
2019-02-07T11:05:44.238Z,33.9
2019-02-07T11:06:33.726Z,33.9
2019-02-07T11:07:24.411Z,33.8
2019-02-07T11:08:15.263Z,33.8
2019-02-07T11:09:04.531Z,33.8
2019-02-07T11:09:54.213Z,33.7
2019-02-07T11:10:43.898Z,33.7
2019-02-07T11:11:35.513Z,33.6
2019-02-07T11:12:23.831Z,33.6
2019-02-07T11:13:14.735Z,33.6
2019-02-07T11:14:04.538Z,33.6
2019-02-07T11:14:54.548Z,33.6
2019-02-07T11:15:44.275Z,33.5
2019-02-07T11:16:34.715Z,33.5
2019-02-07T11:17:26.613Z,33.4